Time;durP1;ratioP1;P1;durP2;ratioP2;P2;SDS_P1;SDS_P2;PMS_P1;PMS_P2;Temp;Humidity;BMP_temperature;BMP_pressure;BME280_temperature;BME280_humidity;BME280_pressure;Samples;Min_cycle;Max_cycle;Signal;HPM_P1;HPM_P2
2022/05/21 00:00:48;;;;;;;8.55;1.50;;;;;;;;;;10407899;28;20060;-71
2022/05/21 00:05:49;;;;;;;5.10;1.50;;;;;;;;;;10407743;28;20112;-72
2022/05/21 00:10:49;;;;;;;2.88;1.80;;;;;;;;;;10407077;28;20033;-71
2022/05/21 00:15:50;;;;;;;3.65;1.33;;;;;;;;;;10405209;28;20083;-75
2022/05/21 00:20:50;;;;;;;2.03;1.23;;;;;;;;;;10405934;28;20030;-75
2022/05/21 00:25:57;;;;;;;3.10;1.30;;;;;;;;;;10404362;28;20024;-75
2022/05/21 00:30:57;;;;;;;2.10;1.55;;;;;;;;;;10405404;28;20559;-72
2022/05/21 00:35:58;;;;;;;3.60;1.38;;;;;;;;;;10405798;28;20031;-72
2022/05/21 00:40:58;;;;;;;2.47;1.50;;;;;;;;;;10405639;28;20025;-74
2022/05/21 00:45:59;;;;;;;9.50;1.93;;;;;;;;;;10405867;28;20028;-72
2022/05/21 00:51:00;;;;;;;3.85;2.40;;;;;;;;;;10404660;28;20412;-78
2022/05/21 00:56:00;;;;;;;2.25;1.50;;;;;;;;;;10403864;28;20459;-74
2022/05/21 01:01:01;;;;;;;6.07;1.45;;;;;;;;;;10387585;28;20075;-73
2022/05/21 01:06:05;;;;;;;2.38;1.40;;;;;;;;;;10404493;28;20020;-73
2022/05/21 01:11:09;;;;;;;2.25;1.55;;;;;;;;;;10403345;28;20041;-75
2022/05/21 01:16:10;;;;;;;1.70;1.27;;;;;;;;;;10402981;28;20641;-77
2022/05/21 01:21:10;;;;;;;2.40;1.50;;;;;;;;;;10402919;28;20020;-72
2022/05/21 01:26:16;;;;;;;2.42;1.38;;;;;;;;;;10402728;28;20014;-73
2022/05/21 01:31:16;;;;;;;2.65;1.45;;;;;;;;;;10402822;28;20025;-73
2022/05/21 01:36:17;;;;;;;1.87;1.00;;;;;;;;;;10401636;28;20018;-76
2022/05/21 01:41:17;;;;;;;2.67;1.02;;;;;;;;;;10402289;28;20040;-73
2022/05/21 01:46:18;;;;;;;1.70;1.17;;;;;;;;;;10404196;28;20575;-76
2022/05/21 01:51:18;;;;;;;3.80;1.70;;;;;;;;;;10401787;28;20025;-74
2022/05/21 01:56:19;;;;;;;2.63;1.58;;;;;;;;;;10402262;28;20051;-74
2022/05/21 02:01:20;;;;;;;2.23;1.70;;;;;;;;;;10402847;28;20021;-73
2022/05/21 02:06:20;;;;;;;2.35;1.60;;;;;;;;;;10402939;28;20068;-73
2022/05/21 02:11:21;;;;;;;2.53;1.67;;;;;;;;;;10402950;28;20112;-74
2022/05/21 02:16:21;;;;;;;2.77;1.50;;;;;;;;;;10402920;28;20148;-78
2022/05/21 02:21:21;;;;;;;1.87;1.50;;;;;;;;;;10403965;28;20025;-76
2022/05/21 02:26:21;;;;;;;2.53;1.50;;;;;;;;;;10403325;28;20041;-72
2022/05/21 02:31:22;;;;;;;1.63;1.33;;;;;;;;;;10403498;28;20072;-72
2022/05/21 02:39:25;;;;;;;3.13;1.90;;;;;;;;;;10402864;28;20386;-81
2022/05/21 02:41:42;;;;;;;3.75;1.58;;;;;;;;;;10403139;28;20016;-77
2022/05/21 02:46:43;;;;;;;4.43;1.50;;;;;;;;;;10404245;28;20481;-77
2022/05/21 02:51:43;;;;;;;2.93;1.13;;;;;;;;;;10410548;28;20044;-72
2022/05/21 02:56:48;;;;;;;6.10;1.40;;;;;;;;;;10409823;28;20014;-75
2022/05/21 03:01:48;;;;;;;1.92;1.20;;;;;;;;;;10410010;28;20041;-76
2022/05/21 03:06:48;;;;;;;2.80;1.35;;;;;;;;;;10409802;28;20658;-76
2022/05/21 03:11:49;;;;;;;3.83;1.60;;;;;;;;;;10409398;28;20052;-74
2022/05/21 03:16:49;;;;;;;2.20;1.47;;;;;;;;;;10410531;28;20126;-73
2022/05/21 03:21:49;;;;;;;3.17;1.63;;;;;;;;;;10410217;28;20027;-72
2022/05/21 03:26:50;;;;;;;2.03;1.10;;;;;;;;;;10408242;28;20353;-73
2022/05/21 03:31:50;;;;;;;1.63;1.40;;;;;;;;;;10409204;28;20018;-73
2022/05/21 03:36:51;;;;;;;1.48;1.20;;;;;;;;;;10409119;28;20021;-75
2022/05/21 03:41:51;;;;;;;3.30;1.43;;;;;;;;;;10409329;28;20029;-76
2022/05/21 03:46:51;;;;;;;4.35;1.40;;;;;;;;;;10408171;28;20030;-73
2022/05/21 03:51:52;;;;;;;3.20;1.10;;;;;;;;;;10408240;28;20124;-76
2022/05/21 03:56:54;;;;;;;5.53;1.60;;;;;;;;;;10407644;28;20034;-76
2022/05/21 04:01:55;;;;;;;3.03;1.80;;;;;;;;;;10406794;28;20018;-73
2022/05/21 04:06:55;;;;;;;7.53;2.80;;;;;;;;;;10407583;28;20026;-74
2022/05/21 04:11:56;;;;;;;3.77;1.77;;;;;;;;;;10407214;28;20025;-73
2022/05/21 04:16:58;;;;;;;8.88;2.90;;;;;;;;;;10406910;28;20422;-74
2022/05/21 04:21:58;;;;;;;2.85;2.05;;;;;;;;;;10406633;28;20057;-75
2022/05/21 04:26:59;;;;;;;3.45;2.50;;;;;;;;;;10406368;28;20153;-76
2022/05/21 04:31:59;;;;;;;8.23;3.55;;;;;;;;;;10408132;28;20030;-72
2022/05/21 04:36:59;;;;;;;10.95;3.50;;;;;;;;;;10407513;28;20029;-73
2022/05/21 04:42:00;;;;;;;5.15;3.15;;;;;;;;;;10407177;28;20033;-72
2022/05/21 04:47:02;;;;;;;3.47;2.28;;;;;;;;;;10405562;28;20087;-72
2022/05/21 04:52:03;;;;;;;3.67;1.60;;;;;;;;;;10405455;28;20079;-73
2022/05/21 04:57:03;;;;;;;1.52;1.23;;;;;;;;;;10405207;28;20557;-79
2022/05/21 05:02:05;;;;;;;4.50;1.75;;;;;;;;;;10404840;28;20026;-73
2022/05/21 05:07:06;;;;;;;3.35;1.33;;;;;;;;;;10405387;28;20024;-74
2022/05/21 05:12:07;;;;;;;4.25;2.03;;;;;;;;;;10403685;28;20026;-74
2022/05/21 05:17:11;;;;;;;2.97;1.73;;;;;;;;;;10403268;28;20048;-78
2022/05/21 05:22:11;;;;;;;2.83;1.15;;;;;;;;;;10402933;28;20009;-73
2022/05/21 05:27:11;;;;;;;9.20;1.40;;;;;;;;;;10402762;28;20053;-73
2022/05/21 05:32:11;;;;;;;2.90;1.20;;;;;;;;;;10404931;28;20017;-73
2022/05/21 05:37:12;;;;;;;8.80;1.50;;;;;;;;;;10403337;28;20108;-72
2022/05/21 05:42:12;;;;;;;2.67;1.00;;;;;;;;;;10402205;28;20028;-71
2022/05/21 05:47:12;;;;;;;1.45;1.10;;;;;;;;;;10399277;28;20780;-74
2022/05/21 05:52:13;;;;;;;1.33;1.13;;;;;;;;;;10375296;28;20030;-73
2022/05/21 05:57:13;;;;;;;2.83;1.80;;;;;;;;;;10361894;28;20437;-72
2022/05/21 06:07:32;;;;;;;1.30;1.20;;;;;;;;;;10368085;28;20108;-72
2022/05/21 06:12:33;;;;;;;3.08;1.33;;;;;;;;;;10360180;28;20494;-72
2022/05/21 06:17:33;;;;;;;3.03;1.50;;;;;;;;;;10374712;28;20026;-70
2022/05/21 06:22:33;;;;;;;0.98;0.80;;;;;;;;;;10370646;28;20544;-75
2022/05/21 06:27:34;;;;;;;3.50;1.03;;;;;;;;;;10382743;28;20508;-73
2022/05/21 06:32:34;;;;;;;7.67;1.10;;;;;;;;;;10381891;28;20263;-71
2022/05/21 06:37:35;;;;;;;4.68;1.17;;;;;;;;;;10389066;28;20029;-71
2022/05/21 06:42:36;;;;;;;4.88;1.20;;;;;;;;;;10388540;28;20034;-73
2022/05/21 06:47:39;;;;;;;3.08;1.40;;;;;;;;;;10381326;28;20036;-72
2022/05/21 06:52:39;;;;;;;4.75;2.15;;;;;;;;;;10383461;28;20026;-73
2022/05/21 06:57:39;;;;;;;4.45;1.88;;;;;;;;;;10379795;28;20022;-72
2022/05/21 07:02:40;;;;;;;6.28;1.83;;;;;;;;;;10387067;28;20037;-72
2022/05/21 07:07:46;;;;;;;5.43;1.83;;;;;;;;;;10381827;28;20108;-73
2022/05/21 07:12:46;;;;;;;7.70;3.83;;;;;;;;;;10381750;28;20034;-72
2022/05/21 07:17:47;;;;;;;9.80;2.30;;;;;;;;;;10389267;28;20060;-73
2022/05/21 07:22:48;;;;;;;12.30;2.50;;;;;;;;;;10379831;28;20441;-77
2022/05/21 07:27:48;;;;;;;13.77;2.45;;;;;;;;;;10393751;28;20555;-73
2022/05/21 07:32:50;;;;;;;17.87;3.00;;;;;;;;;;10384869;28;20401;-78
2022/05/21 07:37:51;;;;;;;18.30;5.22;;;;;;;;;;10408204;28;20022;-73
2022/05/21 07:42:52;;;;;;;9.20;4.63;;;;;;;;;;10409556;28;20482;-73
2022/05/21 07:47:52;;;;;;;13.57;4.60;;;;;;;;;;10408045;28;20029;-77
2022/05/21 07:52:53;;;;;;;15.47;5.23;;;;;;;;;;10407759;28;20048;-71
2022/05/21 07:57:53;;;;;;;14.35;4.47;;;;;;;;;;10407868;28;20033;-74
2022/05/21 08:02:53;;;;;;;8.27;4.57;;;;;;;;;;10410567;28;20033;-78
2022/05/21 08:07:53;;;;;;;12.05;4.18;;;;;;;;;;10412895;28;20068;-74
2022/05/21 08:12:54;;;;;;;9.90;4.15;;;;;;;;;;10407777;28;20056;-76
2022/05/21 08:17:54;;;;;;;11.32;4.47;;;;;;;;;;10406750;28;20124;-71
2022/05/21 08:28:14;;;;;;;5.63;2.95;;;;;;;;;;10408379;28;20460;-74
2022/05/21 08:33:16;;;;;;;13.52;3.15;;;;;;;;;;10406563;28;20037;-73
2022/05/21 08:38:16;;;;;;;6.97;3.17;;;;;;;;;;10407479;28;20549;-73
2022/05/21 08:43:35;;;;;;;13.67;3.03;;;;;;;;;;10406544;28;20112;-72
2022/05/21 08:48:37;;;;;;;4.97;2.35;;;;;;;;;;10411303;28;20303;-77
2022/05/21 08:53:43;;;;;;;8.07;2.90;;;;;;;;;;10405880;28;20036;-72
2022/05/21 08:58:48;;;;;;;13.18;3.10;;;;;;;;;;10388712;28;20488;-73
2022/05/21 09:03:50;;;;;;;;;;;;;;;;;;10389621;28;20107;-78
2022/05/21 09:08:57;;;;;;;6.88;2.40;;;;;;;;;;10407227;28;19905;-73
2022/05/21 09:14:08;;;;;;;12.55;2.05;;;;;;;;;;10388489;28;20025;-77
2022/05/21 09:19:08;;;;;;;4.10;1.85;;;;;;;;;;10404596;28;20083;-71
2022/05/21 09:24:09;;;;;;;4.77;1.80;;;;;;;;;;10403769;28;20120;-79
2022/05/21 09:29:12;;;;;;;9.45;2.10;;;;;;;;;;10405155;28;20056;-73
2022/05/21 09:34:32;;;;;;;7.93;1.77;;;;;;;;;;10403446;28;20513;-74
2022/05/21 09:39:33;;;;;;;15.00;2.60;;;;;;;;;;10402810;28;20026;-73
2022/05/21 09:50:09;;;;;;;8.52;2.25;;;;;;;;;;10404620;28;20146;-73
2022/05/21 09:55:36;;;;;;;5.53;1.85;;;;;;;;;;10402595;28;20115;-73
2022/05/21 10:00:37;;;;;;;7.53;1.98;;;;;;;;;;10393721;28;20026;-78
2022/05/21 10:05:46;;;;;;;2.05;1.02;;;;;;;;;;10362497;28;20029;-77
2022/05/21 10:10:58;;;;;;;2.95;1.15;;;;;;;;;;10366677;28;20029;-76
2022/05/21 10:16:05;;;;;;;4.53;1.15;;;;;;;;;;10377035;28;20025;-75
2022/05/21 10:21:29;;;;;;;3.10;1.00;;;;;;;;;;10386033;28;20040;-72
2022/05/21 10:26:40;;;;;;;4.28;1.40;;;;;;;;;;10373257;28;20033;-72
2022/05/21 10:31:47;;;;;;;2.88;1.52;;;;;;;;;;10377872;28;20053;-72
2022/05/21 10:36:57;;;;;;;3.45;0.93;;;;;;;;;;10381417;28;20029;-73
2022/05/21 10:42:08;;;;;;;4.85;0.85;;;;;;;;;;10377146;28;20025;-73
2022/05/21 10:47:31;;;;;;;4.38;1.63;;;;;;;;;;10358926;28;20409;-72
2022/05/21 10:52:50;;;;;;;3.20;0.95;;;;;;;;;;10359001;28;20061;-73
2022/05/21 10:57:53;;;;;;;2.67;0.90;;;;;;;;;;10358872;28;20507;-73
2022/05/21 11:03:12;;;;;;;2.38;0.90;;;;;;;;;;10379119;28;20092;-72
2022/05/21 11:08:31;;;;;;;1.48;0.80;;;;;;;;;;10403805;28;20100;-71
2022/05/21 11:13:34;;;;;;;2.78;1.20;;;;;;;;;;10408129;28;20032;-71
2022/05/21 11:18:41;;;;;;;2.00;0.93;;;;;;;;;;10408072;28;20040;-72
2022/05/21 11:23:51;;;;;;;2.70;1.00;;;;;;;;;;10407847;28;20596;-72
2022/05/21 11:29:05;;;;;;;2.45;1.00;;;;;;;;;;10382592;28;20129;-72
2022/05/21 11:39:27;;;;;;;4.82;1.50;;;;;;;;;;10367757;28;20545;-72
2022/05/21 11:50:01;;;;;;;5.55;1.50;;;;;;;;;;10368302;28;20029;-71
2022/05/21 11:55:11;;;;;;;10.07;1.73;;;;;;;;;;10365208;28;20084;-76
2022/05/21 12:00:17;;;;;;;3.55;1.55;;;;;;;;;;10365110;28;20029;-78
2022/05/21 12:05:38;;;;;;;2.57;1.20;;;;;;;;;;10365881;28;20025;-77
2022/05/21 12:11:01;;;;;;;5.47;1.20;;;;;;;;;;10363730;28;20025;-75
2022/05/21 12:16:26;;;;;;;2.03;1.27;;;;;;;;;;10364294;28;20559;-77
2022/05/21 12:26:32;;;;;;;2.22;1.20;;;;;;;;;;10365135;28;20050;-74
2022/05/21 12:31:38;;;;;;;5.35;2.08;;;;;;;;;;10363874;28;20071;-76
2022/05/21 12:36:54;;;;;;;4.57;2.23;;;;;;;;;;10363736;28;20026;-73
2022/05/21 12:41:57;;;;;;;2.55;0.93;;;;;;;;;;10363644;28;20113;-76
2022/05/21 12:46:58;;;;;;;2.10;1.30;;;;;;;;;;10363846;28;20053;-75
2022/05/21 12:51:59;;;;;;;2.63;1.40;;;;;;;;;;10361835;28;20573;-77
2022/05/21 12:57:10;;;;;;;4.90;2.05;;;;;;;;;;10362714;28;20022;-76
2022/05/21 13:02:15;;;;;;;3.35;1.52;;;;;;;;;;10361568;28;20433;-72
2022/05/21 13:07:23;;;;;;;7.15;2.42;;;;;;;;;;10345968;28;20034;-70
2022/05/21 13:12:24;;;;;;;8.77;1.30;;;;;;;;;;10362981;28;20034;-72
2022/05/21 13:17:30;;;;;;;1.45;1.10;;;;;;;;;;10363114;28;20022;-77
2022/05/21 13:22:30;;;;;;;2.67;1.20;;;;;;;;;;10361491;28;20036;-74
2022/05/21 13:27:42;;;;;;;3.05;1.40;;;;;;;;;;10361482;28;20058;-77
2022/05/21 13:32:42;;;;;;;2.55;1.63;;;;;;;;;;10359594;28;20030;-76
2022/05/21 13:37:44;;;;;;;1.52;1.20;;;;;;;;;;10366857;28;20036;-76
2022/05/21 13:42:47;;;;;;;3.58;2.13;;;;;;;;;;10388489;28;20029;-73
2022/05/21 13:47:49;;;;;;;4.38;1.83;;;;;;;;;;10380088;28;20141;-75
2022/05/21 13:52:50;;;;;;;2.63;1.42;;;;;;;;;;10389842;28;20025;-77
2022/05/21 13:57:50;;;;;;;2.72;1.30;;;;;;;;;;10389603;28;20032;-74
2022/05/21 14:02:52;;;;;;;3.00;2.17;;;;;;;;;;10387038;28;20017;-72
2022/05/21 14:08:08;;;;;;;3.05;1.40;;;;;;;;;;10383379;28;20136;-75
2022/05/21 14:13:35;;;;;;;3.97;1.25;;;;;;;;;;10379920;28;20026;-71
2022/05/21 14:18:37;;;;;;;2.70;1.85;;;;;;;;;;10380939;28;20052;-77
2022/05/21 14:23:38;;;;;;;7.05;1.75;;;;;;;;;;10379724;28;20113;-76
2022/05/21 14:28:39;;;;;;;4.88;3.65;;;;;;;;;;10386213;28;20050;-71
2022/05/21 14:33:50;;;;;;;4.13;2.50;;;;;;;;;;10381770;28;20481;-77
2022/05/21 14:38:50;;;;;;;6.70;2.33;;;;;;;;;;10380726;28;20029;-75
2022/05/21 14:43:51;;;;;;;4.63;1.93;;;;;;;;;;10383363;28;20029;-71
2022/05/21 14:48:51;;;;;;;2.70;1.60;;;;;;;;;;10396704;28;20033;-71
2022/05/21 14:53:52;;;;;;;5.63;1.37;;;;;;;;;;10386458;28;20025;-69
2022/05/21 14:58:53;;;;;;;4.75;2.88;;;;;;;;;;10392098;28;20032;-71
2022/05/21 15:03:53;;;;;;;4.65;1.55;;;;;;;;;;10386791;28;20018;-77
2022/05/21 15:08:57;;;;;;;5.50;2.88;;;;;;;;;;10386938;28;20029;-75
2022/05/21 15:13:57;;;;;;;3.95;1.73;;;;;;;;;;10388127;28;20030;-76
2022/05/21 15:18:59;;;;;;;2.55;1.42;;;;;;;;;;10388318;28;20075;-74
2022/05/21 15:24:00;;;;;;;2.28;1.63;;;;;;;;;;10388117;28;20020;-75
2022/05/21 15:29:01;;;;;;;3.13;1.70;;;;;;;;;;10389915;28;20498;-75
2022/05/21 15:34:01;;;;;;;2.47;1.40;;;;;;;;;;10386809;28;20028;-77
2022/05/21 15:39:02;;;;;;;4.70;1.85;;;;;;;;;;10392504;28;20600;-76
2022/05/21 15:44:02;;;;;;;6.03;2.08;;;;;;;;;;10385286;28;20188;-75
2022/05/21 15:49:02;;;;;;;7.00;1.73;;;;;;;;;;10386214;28;20021;-73
2022/05/21 15:54:03;;;;;;;5.70;2.47;;;;;;;;;;10381476;28;20508;-75
2022/05/21 15:59:03;;;;;;;3.00;1.77;;;;;;;;;;10390542;28;20028;-77
2022/05/21 16:04:04;;;;;;;4.60;2.53;;;;;;;;;;10388077;28;20022;-80
2022/05/21 16:09:04;;;;;;;9.40;1.98;;;;;;;;;;10392496;28;20030;-78
2022/05/21 16:14:05;;;;;;;9.27;2.47;;;;;;;;;;10386016;28;20113;-75
2022/05/21 16:19:05;;;;;;;4.47;1.83;;;;;;;;;;10360059;28;20021;-73
2022/05/21 16:24:05;;;;;;;4.93;2.08;;;;;;;;;;10362328;28;20030;-73
2022/05/21 16:29:06;;;;;;;2.00;1.73;;;;;;;;;;10379068;28;20421;-76
2022/05/21 16:34:06;;;;;;;7.93;1.80;;;;;;;;;;10369666;28;20021;-77
2022/05/21 16:39:07;;;;;;;4.23;2.00;;;;;;;;;;10363401;28;20490;-75
2022/05/21 16:44:07;;;;;;;2.37;1.90;;;;;;;;;;10364395;28;20504;-72
2022/05/21 16:49:08;;;;;;;5.60;2.37;;;;;;;;;;10363270;28;20056;-77
2022/05/21 16:54:09;;;;;;;3.92;2.00;;;;;;;;;;10368048;28;20038;-77
2022/05/21 16:59:09;;;;;;;4.53;2.50;;;;;;;;;;10364263;28;20071;-76
2022/05/21 17:04:11;;;;;;;5.17;3.03;;;;;;;;;;10363070;28;20859;-71
2022/05/21 17:09:12;;;;;;;5.03;2.47;;;;;;;;;;10367621;28;20021;-76
2022/05/21 17:14:13;;;;;;;13.85;2.67;;;;;;;;;;10365692;28;20026;-75
2022/05/21 17:19:14;;;;;;;7.95;3.00;;;;;;;;;;10366081;28;20521;-76
2022/05/21 17:24:14;;;;;;;8.57;2.38;;;;;;;;;;10368448;28;20029;-71
2022/05/21 17:34:34;;;;;;;3.88;2.30;;;;;;;;;;10361969;28;20494;-76
2022/05/21 17:39:34;;;;;;;4.93;2.97;;;;;;;;;;10361878;28;20026;-76
2022/05/21 17:44:34;;;;;;;4.75;3.30;;;;;;;;;;10360205;28;20109;-73
2022/05/21 17:49:35;;;;;;;4.70;2.50;;;;;;;;;;10368496;28;20037;-77
2022/05/21 17:54:35;;;;;;;5.57;2.40;;;;;;;;;;10357205;28;20557;-72
2022/05/21 17:59:35;;;;;;;6.15;2.58;;;;;;;;;;10376745;28;20052;-73
2022/05/21 18:04:37;;;;;;;4.63;2.97;;;;;;;;;;10364148;28;20031;-74
2022/05/21 18:09:37;;;;;;;4.07;2.95;;;;;;;;;;10360774;28;20021;-77
2022/05/21 18:14:38;;;;;;;9.07;4.27;;;;;;;;;;10370792;28;20084;-72
2022/05/21 18:19:38;;;;;;;7.90;3.53;;;;;;;;;;10362706;28;20506;-71
2022/05/21 18:24:38;;;;;;;8.15;4.05;;;;;;;;;;10360806;28;20029;-76
2022/05/21 18:29:40;;;;;;;7.25;4.10;;;;;;;;;;10368567;28;20046;-74
2022/05/21 18:34:40;;;;;;;13.90;4.18;;;;;;;;;;10357790;28;20592;-74
2022/05/21 18:39:41;;;;;;;11.48;4.15;;;;;;;;;;10368873;28;20026;-72
2022/05/21 18:44:42;;;;;;;15.10;5.65;;;;;;;;;;10382770;28;20028;-73
2022/05/21 18:49:42;;;;;;;8.40;4.40;;;;;;;;;;10381582;28;20033;-73
2022/05/21 18:54:43;;;;;;;12.98;6.28;;;;;;;;;;10382287;28;20026;-77
2022/05/21 18:59:43;;;;;;;10.70;5.22;;;;;;;;;;10378793;28;20429;-76
2022/05/21 19:04:45;;;;;;;9.15;4.60;;;;;;;;;;10373751;28;20494;-72
2022/05/21 19:09:45;;;;;;;7.63;3.40;;;;;;;;;;10357316;28;20478;-73
2022/05/21 19:14:46;;;;;;;8.70;3.80;;;;;;;;;;10363554;28;20022;-74
2022/05/21 19:19:46;;;;;;;11.03;3.50;;;;;;;;;;10384344;28;20018;-77
2022/05/21 19:24:47;;;;;;;11.57;3.33;;;;;;;;;;10380819;28;20025;-77
2022/05/21 19:29:47;;;;;;;6.20;3.55;;;;;;;;;;10381147;28;20100;-72
2022/05/21 19:34:48;;;;;;;5.53;3.92;;;;;;;;;;10387820;28;20033;-79
2022/05/21 19:45:08;;;;;;;6.32;3.70;;;;;;;;;;10390321;28;20025;-78
2022/05/21 19:50:08;;;;;;;4.15;3.28;;;;;;;;;;10368253;28;20421;-77
2022/05/21 19:55:09;;;;;;;8.27;3.60;;;;;;;;;;10387554;28;20028;-73
2022/05/21 20:00:10;;;;;;;7.27;3.23;;;;;;;;;;10391795;28;20065;-78
2022/05/21 20:05:10;;;;;;;8.57;4.72;;;;;;;;;;10366353;28;20441;-80
2022/05/21 20:10:12;;;;;;;7.93;3.38;;;;;;;;;;10367014;28;20037;-77
2022/05/21 20:15:12;;;;;;;6.35;3.78;;;;;;;;;;10369789;28;20025;-78
2022/05/21 20:20:16;;;;;;;4.97;3.70;;;;;;;;;;10368876;28;20026;-77
2022/05/21 20:25:16;;;;;;;4.35;3.25;;;;;;;;;;10404347;28;20009;-74
2022/05/21 20:30:18;;;;;;;5.72;3.38;;;;;;;;;;10403857;28;20469;-75
2022/05/21 20:35:18;;;;;;;6.82;3.20;;;;;;;;;;10404529;28;20010;-74
2022/05/21 20:40:19;;;;;;;5.80;3.42;;;;;;;;;;10403049;28;20013;-77
2022/05/21 20:45:19;;;;;;;11.87;3.97;;;;;;;;;;10400491;28;20020;-75
2022/05/21 20:50:19;;;;;;;6.27;4.03;;;;;;;;;;10404936;28;20524;-74
2022/05/21 20:55:21;;;;;;;15.30;4.73;;;;;;;;;;10404475;28;20350;-77
2022/05/21 21:00:24;;;;;;;10.88;3.92;;;;;;;;;;10404607;28;20105;-73
2022/05/21 21:05:24;;;;;;;6.15;3.78;;;;;;;;;;10405437;28;20021;-72
2022/05/21 21:10:24;;;;;;;7.45;3.97;;;;;;;;;;10405225;28;20072;-74
2022/05/21 21:15:24;;;;;;;5.40;4.20;;;;;;;;;;10404811;28;20103;-77
2022/05/21 21:20:25;;;;;;;8.03;4.50;;;;;;;;;;10405854;28;20024;-73
2022/05/21 21:25:25;;;;;;;4.88;4.03;;;;;;;;;;10404796;28;20036;-73
2022/05/21 21:30:26;;;;;;;6.77;4.53;;;;;;;;;;10404073;28;20045;-73
2022/05/21 21:35:26;;;;;;;6.80;4.18;;;;;;;;;;10404179;28;20031;-73
2022/05/21 21:40:26;;;;;;;6.20;3.90;;;;;;;;;;10387771;28;20104;-78
2022/05/21 21:45:27;;;;;;;5.60;4.13;;;;;;;;;;10404015;28;20412;-73
2022/05/21 21:50:28;;;;;;;6.22;3.60;;;;;;;;;;10403798;28;20493;-73
2022/05/21 21:55:28;;;;;;;9.50;4.50;;;;;;;;;;10402818;28;20538;-73
2022/05/21 22:06:06;;;;;;;4.72;4.20;;;;;;;;;;10404698;28;20026;-73
2022/05/21 22:11:07;;;;;;;5.63;4.40;;;;;;;;;;10402922;28;20413;-77
2022/05/21 22:16:07;;;;;;;6.43;4.53;;;;;;;;;;10403033;28;20464;-75
2022/05/21 22:21:07;;;;;;;10.10;4.30;;;;;;;;;;10403000;28;20049;-74
2022/05/21 22:26:09;;;;;;;9.10;5.65;;;;;;;;;;10402717;28;20029;-77
2022/05/21 22:31:09;;;;;;;7.63;6.05;;;;;;;;;;10403495;28;20135;-78
2022/05/21 22:36:10;;;;;;;8.90;5.00;;;;;;;;;;10403803;28;20089;-73
2022/05/21 22:41:10;;;;;;;12.18;5.32;;;;;;;;;;10402369;28;20043;-76
2022/05/21 22:46:11;;;;;;;6.70;4.63;;;;;;;;;;10402994;28;20117;-73
2022/05/21 22:51:21;;;;;;;7.35;5.15;;;;;;;;;;10402367;28;20481;-72
2022/05/21 22:56:22;;;;;;;5.18;4.32;;;;;;;;;;10402140;28;20022;-73
2022/05/21 23:01:22;;;;;;;7.97;4.57;;;;;;;;;;10401678;28;20043;-75
2022/05/21 23:06:22;;;;;;;6.13;4.85;;;;;;;;;;10409947;28;20032;-72
2022/05/21 23:11:23;;;;;;;9.40;5.32;;;;;;;;;;10409907;28;20079;-73
2022/05/21 23:27:03;;;;;;;6.28;5.15;;;;;;;;;;10410888;28;20054;-73
2022/05/21 23:32:03;;;;;;;10.75;5.10;;;;;;;;;;10406951;28;20044;-73
2022/05/21 23:37:04;;;;;;;9.35;5.55;;;;;;;;;;10409071;28;20040;-80
2022/05/21 23:42:05;;;;;;;10.35;5.00;;;;;;;;;;10408564;28;20018;-74
2022/05/21 23:47:06;;;;;;;11.13;6.50;;;;;;;;;;10406581;28;20032;-78
2022/05/21 23:52:06;;;;;;;14.65;5.45;;;;;;;;;;10406905;28;20021;-73
2022/05/21 23:57:07;;;;;;;10.63;6.53;;;;;;;;;;10406735;28;20021;-78
